Time;durP1;ratioP1;P1;durP2;ratioP2;P2;SDS_P1;SDS_P2;PMS_P1;PMS_P2;Temp;Humidity;BMP_temperature;BMP_pressure;BME280_temperature;BME280_humidity;BME280_pressure;Samples;Min_cycle;Max_cycle;Signal;HPM_P1;HPM_P2
2021/08/21 00:01:32;;;;;;;;;3.75;3.75;;;;;;;;5055451;27;45672;-87
2021/08/21 00:03:57;;;;;;;;;5.25;4.50;;;;;;;;5061387;27;46131;-86
2021/08/21 00:06:22;;;;;;;;;4.00;4.00;;;;;;;;5060021;27;46220;-87
2021/08/21 00:08:47;;;;;;;;;3.00;3.00;;;;;;;;5060282;28;46185;-87
2021/08/21 00:11:13;;;;;;;;;5.00;5.00;;;;;;;;5065723;27;49279;-87
2021/08/21 00:13:38;;;;;;;;;5.00;5.00;;;;;;;;5058629;27;47580;-86
2021/08/21 00:16:03;;;;;;;;;3.00;3.00;;;;;;;;5061645;27;45601;-87
2021/08/21 00:18:29;;;;;;;;;5.00;5.00;;;;;;;;5058756;27;52118;-86
2021/08/21 00:20:54;;;;;;;;;6.50;4.00;;;;;;;;5058005;27;45619;-86
2021/08/21 00:23:19;;;;;;;;;5.00;4.25;;;;;;;;5065075;28;47666;-87
2021/08/21 00:25:45;;;;;;;;;4.25;4.00;;;;;;;;5060765;28;45971;-87
2021/08/21 00:28:10;;;;;;;;;4.00;3.25;;;;;;;;5059970;27;45403;-88
2021/08/21 00:30:35;;;;;;;;;7.00;4.00;;;;;;;;5059968;28;46056;-88
2021/08/21 00:33:00;;;;;;;;;3.50;3.50;;;;;;;;5058694;27;48225;-87
2021/08/21 00:35:26;;;;;;;;;5.00;4.00;;;;;;;;5065003;27;45768;-87
2021/08/21 00:37:51;;;;;;;;;4.75;4.25;;;;;;;;5055912;27;45532;-87
2021/08/21 00:40:16;;;;;;;;;4.67;4.00;;;;;;;;5058739;27;45602;-86
2021/08/21 00:42:41;;;;;;;;;4.50;4.50;;;;;;;;5060787;28;45555;-86
2021/08/21 00:47:34;;;;;;;;;4.25;4.00;;;;;;;;5085638;22;45563;-86
2021/08/21 00:49:59;;;;;;;;;4.00;4.00;;;;;;;;5055042;27;45592;-85
2021/08/21 00:52:26;;;;;;;;;5.00;5.00;;;;;;;;5055471;27;46037;-86
2021/08/21 00:54:55;;;;;;;;;4.50;4.00;;;;;;;;5064235;27;45557;-86
2021/08/21 00:57:21;;;;;;;;;4.00;4.00;;;;;;;;5055053;27;46031;-86
2021/08/21 00:59:47;;;;;;;;;8.00;5.00;;;;;;;;5057419;27;45477;-87
2021/08/21 01:02:13;;;;;;;;;3.75;3.75;;;;;;;;5052502;27;46303;-87
2021/08/21 01:04:40;;;;;;;;;6.00;4.00;;;;;;;;5054718;27;45338;-87
2021/08/21 01:07:08;;;;;;;;;4.50;4.25;;;;;;;;5059568;27;45487;-87
2021/08/21 01:09:38;;;;;;;;;5.00;5.00;;;;;;;;5056907;27;50282;-86
2021/08/21 01:12:06;;;;;;;;;5.00;4.25;;;;;;;;5059509;27;47574;-86
2021/08/21 01:14:32;;;;;;;;;6.25;3.75;;;;;;;;5063773;27;45659;-87
2021/08/21 01:16:57;;;;;;;;;3.00;3.00;;;;;;;;5062723;27;45794;-86
2021/08/21 01:19:23;;;;;;;;;4.00;4.00;;;;;;;;5055089;27;45674;-86
2021/08/21 01:21:48;;;;;;;;;4.25;3.25;;;;;;;;5055953;27;46160;-86
2021/08/21 01:24:14;;;;;;;;;4.67;4.67;;;;;;;;5057278;27;45444;-87
2021/08/21 01:26:55;;;;;;;;;4.75;4.00;;;;;;;;5064004;27;45525;-86
2021/08/21 01:29:21;;;;;;;;;6.00;4.00;;;;;;;;5056649;27;48801;-86
2021/08/21 01:31:47;;;;;;;;;6.00;6.00;;;;;;;;5061046;27;47176;-87
2021/08/21 01:34:12;;;;;;;;;6.25;6.00;;;;;;;;5054716;28;45479;-86
2021/08/21 01:36:38;;;;;;;;;7.50;6.00;;;;;;;;5055339;27;45339;-87
2021/08/21 01:39:03;;;;;;;;;6.25;4.75;;;;;;;;5052998;27;45588;-87
2021/08/21 01:41:29;;;;;;;;;5.00;5.00;;;;;;;;5055791;27;46565;-87
2021/08/21 01:43:54;;;;;;;;;7.33;5.67;;;;;;;;5052153;28;45670;-86
2021/08/21 01:46:19;;;;;;;;;5.00;5.00;;;;;;;;5054582;27;45600;-87
2021/08/21 01:48:44;;;;;;;;;7.00;5.50;;;;;;;;5054094;27;45532;-87
2021/08/21 01:51:09;;;;;;;;;6.00;5.33;;;;;;;;5058390;27;46772;-86
2021/08/21 01:53:35;;;;;;;;;6.33;5.00;;;;;;;;5055388;27;45548;-86
2021/08/21 01:56:00;;;;;;;;;9.00;5.00;;;;;;;;5057865;28;48848;-87
2021/08/21 01:58:25;;;;;;;;;4.00;4.00;;;;;;;;5054578;27;46108;-87
2021/08/21 02:00:50;;;;;;;;;7.67;7.00;;;;;;;;5056986;27;47442;-86
2021/08/21 02:03:17;;;;;;;;;7.00;6.50;;;;;;;;5059184;27;45766;-87
2021/08/21 02:05:43;;;;;;;;;5.50;4.25;;;;;;;;5055868;27;45372;-86
2021/08/21 02:08:08;;;;;;;;;9.00;8.00;;;;;;;;5055387;28;45388;-87
2021/08/21 02:10:33;;;;;;;;;6.33;5.00;;;;;;;;5053864;27;46593;-86
2021/08/21 02:12:58;;;;;;;;;6.75;6.00;;;;;;;;5059040;27;46708;-87
2021/08/21 02:15:24;;;;;;;;;5.33;5.33;;;;;;;;5053089;27;45597;-87
2021/08/21 02:17:49;;;;;;;;;8.00;6.00;;;;;;;;5054092;27;45458;-86
2021/08/21 02:20:14;;;;;;;;;5.25;5.25;;;;;;;;5058347;27;46410;-86
2021/08/21 02:22:41;;;;;;;;;7.50;6.00;;;;;;;;5054850;27;45525;-87
2021/08/21 02:25:07;;;;;;;;;9.75;6.00;;;;;;;;5057548;27;45496;-86
2021/08/21 02:27:37;;;;;;;;;6.75;5.75;;;;;;;;5055196;27;46036;-85
2021/08/21 02:30:03;;;;;;;;;4.00;4.00;;;;;;;;5058840;27;48401;-85
2021/08/21 02:32:28;;;;;;;;;8.75;5.50;;;;;;;;5062123;27;45847;-87
2021/08/21 02:34:53;;;;;;;;;6.67;4.33;;;;;;;;5056164;27;45671;-87
2021/08/21 02:37:19;;;;;;;;;7.33;5.00;;;;;;;;5056460;27;45525;-87
2021/08/21 02:39:45;;;;;;;;;4.25;4.00;;;;;;;;5060134;28;47043;-87
2021/08/21 02:42:10;;;;;;;;;7.75;6.00;;;;;;;;5054117;27;45419;-86
2021/08/21 02:44:35;;;;;;;;;5.50;3.75;;;;;;;;5057625;27;45433;-87
2021/08/21 02:47:00;;;;;;;;;4.75;4.75;;;;;;;;5057894;27;45920;-87
2021/08/21 02:49:26;;;;;;;;;8.67;6.00;;;;;;;;5057944;27;48343;-87
2021/08/21 02:51:51;;;;;;;;;5.50;4.00;;;;;;;;5061894;27;45478;-86
2021/08/21 02:54:17;;;;;;;;;6.00;6.00;;;;;;;;5062565;27;45450;-85
2021/08/21 02:56:42;;;;;;;;;6.00;5.00;;;;;;;;5062035;27;45453;-86
2021/08/21 02:59:07;;;;;;;;;7.00;5.33;;;;;;;;5061297;27;47005;-87
2021/08/21 03:01:32;;;;;;;;;7.00;5.67;;;;;;;;5057694;27;45986;-86
2021/08/21 03:03:57;;;;;;;;;7.33;6.00;;;;;;;;5057006;28;45449;-86
2021/08/21 03:06:23;;;;;;;;;7.50;5.00;;;;;;;;5060460;27;45671;-87
2021/08/21 03:08:49;;;;;;;;;7.50;6.00;;;;;;;;5056080;27;55267;-86
2021/08/21 03:11:14;;;;;;;;;6.00;5.00;;;;;;;;5068368;27;46924;-86
2021/08/21 03:13:40;;;;;;;;;5.50;4.25;;;;;;;;5056935;27;45683;-87
2021/08/21 03:16:05;;;;;;;;;5.00;5.00;;;;;;;;5062204;27;45488;-87
2021/08/21 03:18:31;;;;;;;;;9.67;5.67;;;;;;;;5055914;27;46179;-86
2021/08/21 03:20:56;;;;;;;;;6.00;6.00;;;;;;;;5054242;27;46082;-87
2021/08/21 03:23:21;;;;;;;;;5.00;4.67;;;;;;;;5056422;27;45526;-86
2021/08/21 03:25:46;;;;;;;;;7.00;5.00;;;;;;;;5065812;27;45898;-87
2021/08/21 03:28:11;;;;;;;;;8.33;6.00;;;;;;;;5057976;27;46401;-86
2021/08/21 03:30:37;;;;;;;;;5.75;5.75;;;;;;;;5062124;28;47108;-86
2021/08/21 03:33:05;;;;;;;;;6.67;5.00;;;;;;;;5057041;27;46776;-86
2021/08/21 03:35:30;;;;;;;;;5.00;5.00;;;;;;;;5058523;27;49484;-87
2021/08/21 03:37:55;;;;;;;;;6.00;5.00;;;;;;;;5054035;27;47464;-87
2021/08/21 03:40:20;;;;;;;;;6.50;6.25;;;;;;;;5059392;27;45636;-87
2021/08/21 03:42:46;;;;;;;;;6.75;6.25;;;;;;;;5056681;27;45551;-87
2021/08/21 03:45:11;;;;;;;;;7.00;6.00;;;;;;;;5060044;27;45597;-87
2021/08/21 03:47:37;;;;;;;;;8.67;7.33;;;;;;;;5066038;27;47627;-87
2021/08/21 03:50:02;;;;;;;;;7.25;7.25;;;;;;;;5054183;27;45401;-86
2021/08/21 03:52:27;;;;;;;;;7.00;7.00;;;;;;;;5055992;27;45398;-86
2021/08/21 03:54:53;;;;;;;;;10.33;9.33;;;;;;;;5061060;27;45453;-87
2021/08/21 03:57:18;;;;;;;;;8.33;8.00;;;;;;;;5055388;27;46202;-86
2021/08/21 03:59:43;;;;;;;;;6.67;6.67;;;;;;;;5055614;27;45528;-86
2021/08/21 04:02:08;;;;;;;;;7.67;6.67;;;;;;;;5061665;27;45501;-86
2021/08/21 04:04:33;;;;;;;;;11.50;9.00;;;;;;;;5046994;27;45470;-86
2021/08/21 04:06:59;;;;;;;;;8.00;6.67;;;;;;;;5056216;27;45550;-87
2021/08/21 04:09:24;;;;;;;;;6.00;6.00;;;;;;;;5062259;27;45677;-86
2021/08/21 04:11:49;;;;;;;;;8.67;8.00;;;;;;;;5056374;27;45424;-86
2021/08/21 04:14:14;;;;;;;;;6.50;6.50;;;;;;;;5061957;27;45559;-86
2021/08/21 04:16:39;;;;;;;;;7.67;7.00;;;;;;;;5057230;27;45427;-86
2021/08/21 04:19:05;;;;;;;;;7.33;7.00;;;;;;;;5057753;27;45943;-87
2021/08/21 04:21:30;;;;;;;;;10.50;7.00;;;;;;;;5055549;27;45516;-86
2021/08/21 04:23:55;;;;;;;;;7.75;6.75;;;;;;;;5058891;27;45444;-88
2021/08/21 04:26:20;;;;;;;;;7.00;7.00;;;;;;;;5061048;27;48277;-86
2021/08/21 04:28:46;;;;;;;;;6.00;5.00;;;;;;;;5053227;27;45495;-86
2021/08/21 04:31:11;;;;;;;;;7.00;7.00;;;;;;;;5056973;27;45528;-87
2021/08/21 04:33:36;;;;;;;;;8.67;6.67;;;;;;;;5060339;28;45598;-86
2021/08/21 04:36:02;;;;;;;;;8.67;7.67;;;;;;;;5057262;27;46296;-86
2021/08/21 04:38:27;;;;;;;;;7.50;5.50;;;;;;;;5064640;27;45544;-87
2021/08/21 04:40:52;;;;;;;;;8.00;4.67;;;;;;;;5055763;27;46007;-86
2021/08/21 04:43:19;;;;;;;;;8.00;7.33;;;;;;;;5054461;27;45619;-85
2021/08/21 04:45:44;;;;;;;;;5.25;5.00;;;;;;;;5055603;28;45647;-87
2021/08/21 04:48:10;;;;;;;;;7.75;6.00;;;;;;;;5060149;27;45488;-87
2021/08/21 04:50:36;;;;;;;;;9.50;6.75;;;;;;;;5066508;27;45287;-86
2021/08/21 04:53:02;;;;;;;;;8.00;8.00;;;;;;;;5056037;27;47639;-86
2021/08/21 04:55:27;;;;;;;;;9.00;7.75;;;;;;;;5059690;27;46122;-87
2021/08/21 04:57:52;;;;;;;;;8.67;8.67;;;;;;;;5057288;28;45600;-86
2021/08/21 05:00:18;;;;;;;;;7.33;6.67;;;;;;;;5062855;27;45526;-86
2021/08/21 05:02:43;;;;;;;;;8.25;7.50;;;;;;;;5054588;28;45552;-87
2021/08/21 05:05:08;;;;;;;;;7.00;5.33;;;;;;;;5060473;27;46566;-86
2021/08/21 05:07:33;;;;;;;;;8.00;7.00;;;;;;;;5058842;27;45825;-86
2021/08/21 05:09:59;;;;;;;;;6.33;6.00;;;;;;;;5057255;27;45412;-87
2021/08/21 05:12:24;;;;;;;;;6.33;5.67;;;;;;;;5053348;27;45487;-87
2021/08/21 05:14:49;;;;;;;;;7.50;7.00;;;;;;;;5055036;27;45466;-87
2021/08/21 05:17:14;;;;;;;;;9.00;7.67;;;;;;;;5054438;27;45641;-86
2021/08/21 05:19:44;;;;;;;;;10.00;8.67;;;;;;;;5055728;27;45350;-86
2021/08/21 05:24:55;;;;;;;;;9.00;7.75;;;;;;;;5028019;28;45506;-87
2021/08/21 05:27:21;;;;;;;;;8.00;7.50;;;;;;;;5026622;28;45701;-87
2021/08/21 05:29:46;;;;;;;;;10.25;9.00;;;;;;;;5023810;28;51732;-86
2021/08/21 05:32:12;;;;;;;;;9.00;7.00;;;;;;;;5027022;28;45635;-86
2021/08/21 05:34:37;;;;;;;;;9.75;8.00;;;;;;;;5023742;28;46638;-87
2021/08/21 05:37:03;;;;;;;;;9.50;7.50;;;;;;;;5024941;28;45624;-86
2021/08/21 05:39:28;;;;;;;;;9.00;9.00;;;;;;;;5024800;28;45525;-87
2021/08/21 05:41:53;;;;;;;;;7.25;7.25;;;;;;;;5023873;28;45534;-86
2021/08/21 05:44:18;;;;;;;;;8.25;8.00;;;;;;;;5027181;28;45546;-86
2021/08/21 05:46:44;;;;;;;;;8.00;7.00;;;;;;;;5024275;28;45415;-86
2021/08/21 05:49:09;;;;;;;;;9.67;7.67;;;;;;;;5025470;28;45590;-87
2021/08/21 05:51:34;;;;;;;;;10.00;8.25;;;;;;;;5027600;28;45616;-86
2021/08/21 05:53:59;;;;;;;;;7.00;7.00;;;;;;;;5024866;28;45789;-86
2021/08/21 05:56:25;;;;;;;;;9.67;8.00;;;;;;;;5026065;28;45722;-87
2021/08/21 05:58:50;;;;;;;;;11.50;8.00;;;;;;;;5044817;22;45599;-83
2021/08/21 06:01:16;;;;;;;;;7.25;7.25;;;;;;;;5035712;28;45607;-83
2021/08/21 06:03:41;;;;;;;;;8.00;7.00;;;;;;;;5037080;28;47777;-83
2021/08/21 06:06:09;;;;;;;;;9.75;7.25;;;;;;;;5028005;28;46131;-84
2021/08/21 06:08:35;;;;;;;;;8.00;7.00;;;;;;;;5044602;28;45546;-83
2021/08/21 06:11:00;;;;;;;;;9.67;8.00;;;;;;;;5044350;28;45516;-84
2021/08/21 06:13:25;;;;;;;;;6.33;6.33;;;;;;;;5031191;28;46364;-86
2021/08/21 06:15:50;;;;;;;;;9.33;8.00;;;;;;;;5043849;28;45560;-85
2021/08/21 06:18:15;;;;;;;;;9.67;7.33;;;;;;;;5082615;22;45577;-87
2021/08/21 06:20:41;;;;;;;;;6.00;6.00;;;;;;;;5064906;27;45578;-87
2021/08/21 06:23:06;;;;;;;;;8.00;8.00;;;;;;;;5049725;22;45566;-82
2021/08/21 06:25:31;;;;;;;;;5.75;5.75;;;;;;;;5028659;28;45629;-81
2021/08/21 06:27:57;;;;;;;;;7.00;5.00;;;;;;;;5034431;28;50375;-81
2021/08/21 06:30:22;;;;;;;;;8.50;7.00;;;;;;;;5031165;28;45545;-82
2021/08/21 06:32:47;;;;;;;;;8.25;8.00;;;;;;;;5032427;28;45575;-82
2021/08/21 06:35:13;;;;;;;;;7.00;5.00;;;;;;;;5036672;28;45523;-81
2021/08/21 06:37:38;;;;;;;;;9.00;8.00;;;;;;;;5033158;28;45689;-81
2021/08/21 06:40:04;;;;;;;;;7.25;6.00;;;;;;;;5016698;28;45679;-81
2021/08/21 06:42:29;;;;;;;;;7.50;7.50;;;;;;;;5037362;28;45592;-81
2021/08/21 06:44:54;;;;;;;;;8.00;7.00;;;;;;;;5032386;28;45567;-82
2021/08/21 06:47:19;;;;;;;;;7.00;7.00;;;;;;;;5042155;28;45547;-81
2021/08/21 06:49:45;;;;;;;;;10.25;7.00;;;;;;;;5028884;28;45515;-81
2021/08/21 06:52:10;;;;;;;;;5.50;5.50;;;;;;;;5035746;28;46156;-82
2021/08/21 06:54:35;;;;;;;;;7.00;6.67;;;;;;;;5038048;28;45570;-81
2021/08/21 06:57:00;;;;;;;;;7.67;7.00;;;;;;;;5029704;28;45671;-81
2021/08/21 06:59:26;;;;;;;;;8.67;6.00;;;;;;;;5031321;28;45530;-81
2021/08/21 07:01:51;;;;;;;;;8.00;6.33;;;;;;;;5029385;28;45563;-81
2021/08/21 07:04:16;;;;;;;;;7.50;7.00;;;;;;;;5037221;28;45580;-82
2021/08/21 07:06:41;;;;;;;;;6.25;5.75;;;;;;;;5014763;28;45562;-81
2021/08/21 07:09:07;;;;;;;;;5.00;5.00;;;;;;;;5029421;28;45587;-81
2021/08/21 07:11:32;;;;;;;;;7.50;5.75;;;;;;;;5037133;28;46039;-81
2021/08/21 07:13:57;;;;;;;;;8.25;6.50;;;;;;;;5029351;28;45666;-82
2021/08/21 07:16:23;;;;;;;;;6.50;5.25;;;;;;;;5031914;28;45567;-81
2021/08/21 07:18:48;;;;;;;;;6.50;5.75;;;;;;;;5030407;28;45486;-82
2021/08/21 07:21:13;;;;;;;;;6.75;6.00;;;;;;;;5025262;28;48427;-81
2021/08/21 07:23:38;;;;;;;;;8.00;7.00;;;;;;;;5034926;28;45548;-81
2021/08/21 07:26:04;;;;;;;;;10.00;6.67;;;;;;;;5035117;28;45591;-82
2021/08/21 07:28:30;;;;;;;;;8.75;7.00;;;;;;;;5030945;28;45536;-81
2021/08/21 07:30:55;;;;;;;;;8.50;6.00;;;;;;;;5034061;28;46076;-81
2021/08/21 07:33:20;;;;;;;;;5.67;5.00;;;;;;;;5020961;28;45489;-82
2021/08/21 07:35:45;;;;;;;;;9.75;6.50;;;;;;;;5031990;28;45854;-82
2021/08/21 07:38:11;;;;;;;;;5.33;5.33;;;;;;;;5027886;28;45481;-81
2021/08/21 07:40:36;;;;;;;;;6.75;5.00;;;;;;;;5032117;28;45544;-81
2021/08/21 07:43:01;;;;;;;;;8.25;6.00;;;;;;;;5034963;28;45485;-81
2021/08/21 07:45:27;;;;;;;;;7.75;5.75;;;;;;;;5029519;28;46812;-81
2021/08/21 07:47:52;;;;;;;;;7.50;5.75;;;;;;;;5030452;28;45462;-81
2021/08/21 07:50:18;;;;;;;;;6.75;6.75;;;;;;;;5030336;28;49512;-81
2021/08/21 07:52:44;;;;;;;;;10.00;7.25;;;;;;;;5021797;28;45980;-81
2021/08/21 07:55:09;;;;;;;;;6.50;6.25;;;;;;;;5031898;28;45657;-82
2021/08/21 07:57:35;;;;;;;;;7.00;6.00;;;;;;;;5030879;28;45554;-81
2021/08/21 08:00:00;;;;;;;;;7.33;6.00;;;;;;;;5030209;28;45603;-81
2021/08/21 08:02:25;;;;;;;;;6.67;6.67;;;;;;;;5029568;28;45792;-81
2021/08/21 08:04:50;;;;;;;;;5.33;5.00;;;;;;;;5028345;28;46001;-83
2021/08/21 08:07:15;;;;;;;;;11.50;6.75;;;;;;;;5025771;28;45501;-81
2021/08/21 08:09:41;;;;;;;;;6.00;6.00;;;;;;;;5035533;28;45399;-80
2021/08/21 08:12:06;;;;;;;;;5.75;5.75;;;;;;;;5018847;28;45470;-81
2021/08/21 08:14:31;;;;;;;;;7.50;6.25;;;;;;;;5032645;28;45582;-82
2021/08/21 08:16:58;;;;;;;;;10.50;8.00;;;;;;;;5030330;28;45932;-82
2021/08/21 08:19:23;;;;;;;;;7.00;5.33;;;;;;;;5029077;28;46459;-82
2021/08/21 08:21:48;;;;;;;;;6.33;6.33;;;;;;;;5030462;28;45552;-83
2021/08/21 08:24:14;;;;;;;;;6.33;6.33;;;;;;;;5027299;28;45656;-82
2021/08/21 08:26:39;;;;;;;;;11.75;7.00;;;;;;;;5035314;28;45584;-82
2021/08/21 08:29:04;;;;;;;;;7.00;5.25;;;;;;;;5034830;28;46129;-83
2021/08/21 08:31:29;;;;;;;;;7.00;6.00;;;;;;;;5027554;28;45606;-80
2021/08/21 08:33:55;;;;;;;;;7.33;5.67;;;;;;;;5035937;28;45506;-82
2021/08/21 08:36:20;;;;;;;;;9.50;7.75;;;;;;;;5030704;28;45586;-82
2021/08/21 08:38:45;;;;;;;;;8.25;7.50;;;;;;;;5030453;28;45994;-83
2021/08/21 08:41:11;;;;;;;;;7.50;6.75;;;;;;;;5030498;28;45547;-83
2021/08/21 08:43:37;;;;;;;;;7.50;6.50;;;;;;;;5021209;28;45759;-82
2021/08/21 08:46:02;;;;;;;;;7.00;6.00;;;;;;;;5037845;28;45691;-83
2021/08/21 08:48:28;;;;;;;;;9.25;6.50;;;;;;;;5022278;28;47745;-82
2021/08/21 08:50:54;;;;;;;;;7.00;6.75;;;;;;;;5036655;28;47935;-82
2021/08/21 08:53:19;;;;;;;;;8.00;8.00;;;;;;;;5020340;28;46365;-85
2021/08/21 08:55:46;;;;;;;;;6.75;6.50;;;;;;;;5031628;28;45619;-81
2021/08/21 08:58:12;;;;;;;;;8.25;6.75;;;;;;;;5027893;28;45517;-82
2021/08/21 09:00:37;;;;;;;;;8.00;7.25;;;;;;;;5023770;28;45510;-82
2021/08/21 09:03:03;;;;;;;;;7.00;7.00;;;;;;;;5026856;28;45477;-83
2021/08/21 09:05:35;;;;;;;;;6.00;6.00;;;;;;;;5032869;28;45456;-83
2021/08/21 09:08:00;;;;;;;;;8.75;7.00;;;;;;;;5030063;28;46455;-81
2021/08/21 09:10:26;;;;;;;;;6.00;5.00;;;;;;;;5028360;28;45480;-81
2021/08/21 09:13:12;;;;;;;;;9.00;6.75;;;;;;;;5036963;28;45599;-81
2021/08/21 09:15:39;;;;;;;;;8.50;6.25;;;;;;;;5029587;28;45647;-82
2021/08/21 09:18:13;;;;;;;;;5.75;5.75;;;;;;;;5025228;28;45681;-81
2021/08/21 09:20:41;;;;;;;;;5.75;5.75;;;;;;;;5000664;22;46097;-87
2021/08/21 09:23:16;;;;;;;;;10.25;7.00;;;;;;;;5000672;28;45381;-87
2021/08/21 09:25:42;;;;;;;;;10.00;6.00;;;;;;;;5007771;28;45677;-87
2021/08/21 09:28:14;;;;;;;;;8.25;8.25;;;;;;;;5002186;28;46316;-87
2021/08/21 09:30:39;;;;;;;;;6.75;6.75;;;;;;;;5001822;28;45479;-86
2021/08/21 09:33:06;;;;;;;;;6.00;6.00;;;;;;;;4999449;28;45489;-87
2021/08/21 09:35:32;;;;;;;;;6.75;6.25;;;;;;;;5002871;28;45393;-87
2021/08/21 09:37:58;;;;;;;;;6.00;5.50;;;;;;;;4996852;28;47046;-87
2021/08/21 09:40:29;;;;;;;;;7.50;6.75;;;;;;;;5001870;28;53282;-87
2021/08/21 09:42:54;;;;;;;;;7.00;7.00;;;;;;;;5002079;28;46799;-87
2021/08/21 09:45:21;;;;;;;;;5.50;4.75;;;;;;;;5005140;28;45381;-87
2021/08/21 09:47:46;;;;;;;;;7.25;6.75;;;;;;;;4999842;28;48165;-87
2021/08/21 09:50:16;;;;;;;;;8.25;7.25;;;;;;;;5002838;28;45423;-87
2021/08/21 09:52:42;;;;;;;;;6.50;6.50;;;;;;;;5007473;28;45707;-87
2021/08/21 09:55:09;;;;;;;;;8.75;6.75;;;;;;;;5006361;28;45532;-87
2021/08/21 09:57:35;;;;;;;;;6.75;6.75;;;;;;;;5002450;28;48564;-87
2021/08/21 10:00:01;;;;;;;;;6.50;6.50;;;;;;;;5007040;28;45647;-87
2021/08/21 10:02:30;;;;;;;;;6.75;6.50;;;;;;;;5007594;28;47437;-88
2021/08/21 10:04:55;;;;;;;;;6.25;6.25;;;;;;;;4998758;28;45539;-87
2021/08/21 10:07:24;;;;;;;;;5.75;5.50;;;;;;;;5003983;28;46426;-87
2021/08/21 10:09:52;;;;;;;;;6.00;5.50;;;;;;;;5002053;28;45351;-87
2021/08/21 10:12:20;;;;;;;;;6.75;6.75;;;;;;;;5004206;28;45548;-87
2021/08/21 10:14:45;;;;;;;;;7.25;5.75;;;;;;;;5001432;28;45673;-87
2021/08/21 10:17:14;;;;;;;;;7.00;5.50;;;;;;;;5005428;28;47293;-87
2021/08/21 10:19:40;;;;;;;;;7.00;6.25;;;;;;;;5002949;28;45591;-87
2021/08/21 10:22:05;;;;;;;;;11.75;7.00;;;;;;;;4991297;28;45297;-87
2021/08/21 10:24:34;;;;;;;;;6.50;6.50;;;;;;;;5007752;28;46315;-87
2021/08/21 10:27:17;;;;;;;;;7.50;6.75;;;;;;;;5002511;28;46571;-87
2021/08/21 10:30:01;;;;;;;;;10.00;7.75;;;;;;;;5004170;28;45408;-87
2021/08/21 10:32:40;;;;;;;;;6.75;6.75;;;;;;;;5005311;28;45859;-87
2021/08/21 10:35:06;;;;;;;;;8.00;8.00;;;;;;;;5003299;28;45427;-87
2021/08/21 10:37:45;;;;;;;;;6.00;6.00;;;;;;;;5000286;28;46529;-87
2021/08/21 10:40:28;;;;;;;;;7.75;6.50;;;;;;;;5001505;28;45653;-87
2021/08/21 10:42:54;;;;;;;;;7.50;7.50;;;;;;;;5001615;28;45471;-87
2021/08/21 10:45:38;;;;;;;;;8.00;6.50;;;;;;;;4990824;28;45589;-87
2021/08/21 10:48:04;;;;;;;;;8.25;7.25;;;;;;;;5000123;28;45456;-87
2021/08/21 10:50:30;;;;;;;;;6.75;6.50;;;;;;;;5004735;28;45305;-87
2021/08/21 10:52:59;;;;;;;;;9.25;8.00;;;;;;;;4999689;28;45811;-87
2021/08/21 10:55:27;;;;;;;;;9.00;5.75;;;;;;;;5006142;28;45547;-87
2021/08/21 10:57:55;;;;;;;;;6.75;6.75;;;;;;;;5000001;28;45622;-86
2021/08/21 11:00:38;;;;;;;;;6.25;6.25;;;;;;;;5004404;28;45566;-87
2021/08/21 11:03:04;;;;;;;;;7.00;7.00;;;;;;;;5001816;28;45419;-87
2021/08/21 11:05:48;;;;;;;;;7.25;6.00;;;;;;;;4999209;28;45414;-87
2021/08/21 11:08:13;;;;;;;;;5.75;5.50;;;;;;;;5007884;28;46264;-87
2021/08/21 11:10:38;;;;;;;;;6.75;6.75;;;;;;;;5003704;28;45337;-87
2021/08/21 11:13:06;;;;;;;;;7.50;6.75;;;;;;;;4998879;28;45622;-87
2021/08/21 11:15:33;;;;;;;;;8.00;7.00;;;;;;;;5003722;28;45657;-87
2021/08/21 11:17:58;;;;;;;;;6.75;6.25;;;;;;;;5001468;28;47523;-87
2021/08/21 11:20:31;;;;;;;;;12.00;7.75;;;;;;;;5016977;28;45511;-87
2021/08/21 11:23:05;;;;;;;;;8.50;6.75;;;;;;;;5022256;28;45624;-87
2021/08/21 11:25:31;;;;;;;;;8.00;8.00;;;;;;;;5027260;28;45645;-87
2021/08/21 11:28:07;;;;;;;;;7.00;7.00;;;;;;;;5016378;28;46956;-87
2021/08/21 11:30:33;;;;;;;;;8.00;8.00;;;;;;;;5011347;28;46001;-87
2021/08/21 11:33:01;;;;;;;;;8.75;6.75;;;;;;;;5028259;28;45443;-87
2021/08/21 11:35:37;;;;;;;;;8.25;6.25;;;;;;;;5028985;28;45415;-89
2021/08/21 11:38:13;;;;;;;;;6.00;6.00;;;;;;;;5026830;28;46133;-87
2021/08/21 11:40:43;;;;;;;;;6.25;6.00;;;;;;;;5022411;28;45372;-87
2021/08/21 11:43:12;;;;;;;;;8.00;6.50;;;;;;;;5030802;28;46224;-87
2021/08/21 11:45:37;;;;;;;;;6.00;6.00;;;;;;;;5023931;28;45632;-87
2021/08/21 11:48:03;;;;;;;;;8.00;8.00;;;;;;;;5025158;28;46699;-87
2021/08/21 11:50:30;;;;;;;;;7.25;6.50;;;;;;;;5022682;28;45627;-86
2021/08/21 11:52:57;;;;;;;;;7.50;7.50;;;;;;;;5023303;28;45462;-87
2021/08/21 11:55:24;;;;;;;;;8.00;6.00;;;;;;;;5024503;28;45572;-87
2021/08/21 11:57:50;;;;;;;;;6.75;6.75;;;;;;;;5020564;28;45444;-87
2021/08/21 12:00:23;;;;;;;;;5.50;4.25;;;;;;;;5027314;28;45549;-87
2021/08/21 12:02:51;;;;;;;;;7.00;7.00;;;;;;;;5021024;28;45496;-87
2021/08/21 12:05:26;;;;;;;;;6.00;5.50;;;;;;;;5019917;28;45883;-87
2021/08/21 12:07:51;;;;;;;;;7.00;6.75;;;;;;;;5026105;28;46355;-87
2021/08/21 12:10:16;;;;;;;;;6.75;6.75;;;;;;;;5018604;28;45564;-87
2021/08/21 12:12:42;;;;;;;;;7.00;7.00;;;;;;;;5020784;28;45487;-87
2021/08/21 12:15:07;;;;;;;;;7.75;7.50;;;;;;;;5021719;28;45990;-88
2021/08/21 12:17:34;;;;;;;;;6.25;6.00;;;;;;;;5029278;28;47117;-87
2021/08/21 12:20:00;;;;;;;;;6.00;6.00;;;;;;;;5009899;28;46228;-87
2021/08/21 12:22:25;;;;;;;;;6.50;6.50;;;;;;;;5000532;28;45495;-87
2021/08/21 12:24:54;;;;;;;;;11.00;8.00;;;;;;;;5030012;28;45556;-87
2021/08/21 12:27:23;;;;;;;;;7.50;7.50;;;;;;;;5023955;28;45754;-86
2021/08/21 12:30:03;;;;;;;;;6.50;6.50;;;;;;;;5021077;28;45493;-87
2021/08/21 12:32:28;;;;;;;;;10.00;8.00;;;;;;;;5029202;28;47322;-87
2021/08/21 12:35:32;;;;;;;;;8.00;6.00;;;;;;;;5029664;28;45453;-87
2021/08/21 12:38:04;;;;;;;;;6.25;6.25;;;;;;;;4944007;28;45575;-87
2021/08/21 12:40:30;;;;;;;;;7.50;7.00;;;;;;;;4939517;28;45908;-88
2021/08/21 12:43:05;;;;;;;;;7.50;7.50;;;;;;;;4954511;28;45570;-87
2021/08/21 12:45:31;;;;;;;;;6.00;5.00;;;;;;;;4950466;28;45804;-87
2021/08/21 12:48:05;;;;;;;;;7.00;5.25;;;;;;;;4945204;28;46349;-87
2021/08/21 12:50:38;;;;;;;;;7.75;6.25;;;;;;;;4949707;28;45625;-87
2021/08/21 12:53:03;;;;;;;;;7.50;6.00;;;;;;;;4940908;28;46058;-87
2021/08/21 12:55:29;;;;;;;;;7.50;6.25;;;;;;;;4943781;28;45518;-87
2021/08/21 12:58:07;;;;;;;;;7.00;7.00;;;;;;;;4939871;28;47226;-88
2021/08/21 13:00:33;;;;;;;;;10.00;7.00;;;;;;;;4938180;28;45612;-87
2021/08/21 13:03:11;;;;;;;;;7.75;7.75;;;;;;;;4938994;28;46047;-87
2021/08/21 13:05:36;;;;;;;;;8.50;6.00;;;;;;;;4942882;28;45477;-87
2021/08/21 13:08:03;;;;;;;;;9.75;7.00;;;;;;;;4959752;28;54721;-86
2021/08/21 13:10:31;;;;;;;;;12.75;11.50;;;;;;;;5027046;28;45754;-87
2021/08/21 13:12:56;;;;;;;;;10.00;9.25;;;;;;;;5026161;28;45549;-87
2021/08/21 13:15:22;;;;;;;;;9.75;8.50;;;;;;;;5020895;28;45956;-87
2021/08/21 13:17:47;;;;;;;;;7.75;7.25;;;;;;;;5017682;28;45604;-87
2021/08/21 13:20:14;;;;;;;;;8.00;8.00;;;;;;;;5021656;28;45551;-88
2021/08/21 13:22:40;;;;;;;;;7.00;7.00;;;;;;;;5022278;28;45585;-87
2021/08/21 13:25:05;;;;;;;;;8.75;7.75;;;;;;;;5029579;28;45472;-87
2021/08/21 13:27:31;;;;;;;;;8.25;6.75;;;;;;;;5020780;28;47470;-87
2021/08/21 13:29:56;;;;;;;;;10.00;8.67;;;;;;;;5021353;28;45451;-87
2021/08/21 13:32:21;;;;;;;;;7.00;7.00;;;;;;;;5009973;28;45456;-86
2021/08/21 13:34:46;;;;;;;;;7.25;5.75;;;;;;;;5023849;28;45649;-87
2021/08/21 13:37:12;;;;;;;;;7.00;6.00;;;;;;;;5024303;28;46257;-87
2021/08/21 13:39:37;;;;;;;;;7.25;6.75;;;;;;;;5023597;28;45424;-87
2021/08/21 13:42:03;;;;;;;;;7.75;7.00;;;;;;;;5020686;28;49899;-87
2021/08/21 13:44:28;;;;;;;;;10.25;7.25;;;;;;;;5019789;28;45570;-88
2021/08/21 13:46:54;;;;;;;;;6.00;6.00;;;;;;;;5020474;28;45510;-87
2021/08/21 13:49:19;;;;;;;;;6.25;6.25;;;;;;;;5024136;28;45347;-87
2021/08/21 13:51:44;;;;;;;;;6.75;6.75;;;;;;;;5018254;28;45275;-88
2021/08/21 13:54:09;;;;;;;;;5.00;5.00;;;;;;;;5017727;28;45428;-87
2021/08/21 13:56:36;;;;;;;;;5.00;5.00;;;;;;;;5010383;28;48368;-87
2021/08/21 13:59:02;;;;;;;;;6.00;5.50;;;;;;;;5016149;28;45541;-87
2021/08/21 14:01:27;;;;;;;;;7.25;6.50;;;;;;;;5018045;28;45522;-87
2021/08/21 14:03:52;;;;;;;;;5.00;5.00;;;;;;;;5022004;28;45479;-87
2021/08/21 14:06:18;;;;;;;;;7.00;5.00;;;;;;;;5025877;28;47524;-88
2021/08/21 14:08:43;;;;;;;;;7.25;5.00;;;;;;;;5017002;28;45436;-88
2021/08/21 14:11:09;;;;;;;;;6.00;4.75;;;;;;;;5022324;28;45498;-88
2021/08/21 14:13:34;;;;;;;;;7.00;5.33;;;;;;;;5023579;28;46121;-87
2021/08/21 14:15:59;;;;;;;;;5.67;4.67;;;;;;;;5030365;28;47083;-87
2021/08/21 14:18:25;;;;;;;;;7.50;7.50;;;;;;;;5025508;28;45617;-87
2021/08/21 14:20:50;;;;;;;;;4.50;4.50;;;;;;;;5024729;28;45564;-87
2021/08/21 14:23:15;;;;;;;;;4.33;4.33;;;;;;;;5025975;28;45411;-87
2021/08/21 14:25:41;;;;;;;;;6.25;5.50;;;;;;;;5029502;28;46231;-88
2021/08/21 14:28:07;;;;;;;;;6.25;5.00;;;;;;;;5032282;28;45330;-85
2021/08/21 14:30:32;;;;;;;;;5.00;5.00;;;;;;;;5030071;28;45424;-87
2021/08/21 14:32:58;;;;;;;;;5.00;4.25;;;;;;;;5026692;28;45308;-87
2021/08/21 14:35:23;;;;;;;;;9.00;7.00;;;;;;;;5032407;28;47463;-88
2021/08/21 14:37:49;;;;;;;;;7.00;5.75;;;;;;;;5012055;28;45547;-89
2021/08/21 14:40:14;;;;;;;;;6.25;6.25;;;;;;;;5029747;28;45398;-87
2021/08/21 14:42:39;;;;;;;;;4.50;4.50;;;;;;;;5028707;28;45745;-87
2021/08/21 14:45:05;;;;;;;;;4.33;4.33;;;;;;;;5027839;28;46158;-88